createdAt,value
2018-05-15T01:59:01.226Z,0.1
2018-05-15T02:00:01.255Z,0.1
2018-05-15T02:01:01.062Z,0.2
2018-05-15T02:02:01.096Z,0.3
2018-05-15T02:04:01.117Z,0.4
2018-05-15T02:05:01.240Z,0.5
2018-05-15T02:07:01.063Z,0.6
2018-05-15T02:08:01.097Z,0.7
2018-05-15T02:10:01.303Z,0.9
2018-05-15T02:11:01.094Z,1.0
2018-05-15T02:12:01.099Z,1.1
2018-05-15T02:13:01.068Z,1.3
2018-05-15T02:15:01.235Z,1.5
2018-05-15T02:16:01.070Z,1.6
2018-05-15T02:17:01.067Z,1.7
2018-05-15T02:18:01.066Z,1.9
2018-05-15T02:19:01.108Z,2.1
2018-05-15T02:20:01.322Z,2.4
2018-05-15T02:21:01.096Z,2.7
2018-05-15T02:22:01.068Z,3.0
2018-05-15T02:23:01.097Z,3.4
2018-05-15T02:24:01.094Z,3.9
2018-05-15T02:25:01.268Z,4.3
2018-05-15T02:26:01.101Z,4.9
2018-05-15T02:27:01.095Z,5.5
2018-05-15T02:28:01.096Z,6.2
2018-05-15T02:29:01.070Z,7.1
2018-05-15T02:30:01.241Z,8.0
2018-05-15T02:31:01.065Z,9.1
2018-05-15T02:32:01.068Z,10.3
2018-05-15T02:33:01.071Z,11.7
2018-05-15T02:34:01.101Z,13.3
2018-05-15T02:35:01.282Z,15.1
2018-05-15T02:36:01.110Z,17.1
2018-05-15T02:37:01.073Z,19.5
2018-05-15T02:39:01.216Z,22.5
2018-05-15T02:40:01.329Z,26.1
2018-05-15T02:41:01.085Z,30.1
2018-05-15T02:42:01.100Z,34.6
2018-05-15T02:43:01.056Z,39.8
2018-05-15T02:44:01.090Z,45.6
2018-05-15T02:45:01.328Z,52.2
2018-05-15T02:46:01.106Z,59.7
2018-05-15T02:47:01.061Z,68.1
2018-05-15T02:48:01.093Z,77.6
2018-05-15T02:49:01.097Z,88.2
2018-05-15T02:50:01.274Z,100.1
2018-05-15T02:51:01.088Z,113.5
2018-05-15T02:52:01.056Z,128.5
2018-05-15T02:53:01.064Z,145.3
2018-05-15T02:54:01.088Z,163.7
2018-05-15T02:55:01.244Z,184.0
2018-05-15T02:56:01.059Z,206.6
2018-05-15T02:57:01.100Z,231.7
2018-05-15T02:58:01.089Z,259.5
2018-05-15T02:59:01.060Z,290.2
2018-05-15T03:00:01.273Z,324.0
2018-05-15T03:01:01.061Z,361.2
2018-05-15T03:02:01.090Z,402.0
2018-05-15T03:03:01.065Z,446.5
2018-05-15T03:04:01.068Z,495.2
2018-05-15T03:05:01.273Z,548.1
2018-05-15T03:06:01.101Z,605.5
2018-05-15T03:07:01.078Z,667.7
2018-05-15T03:08:01.062Z,734.9
2018-05-15T03:09:01.096Z,807.3
2018-05-15T03:10:01.318Z,885.3
2018-05-15T03:11:02.122Z,969.1
2018-05-15T03:12:01.062Z,1058.9
2018-05-15T03:13:01.064Z,1155.0
2018-05-15T03:14:01.065Z,1257.5
2018-05-15T03:15:01.240Z,1366.6
2018-05-15T03:16:01.069Z,1482.3
2018-05-15T03:17:01.105Z,1605.1
2018-05-15T03:18:01.067Z,1735.1
2018-05-15T03:19:01.065Z,1872.5
2018-05-15T03:20:01.296Z,2017.5
2018-05-15T03:21:01.067Z,2170.6
2018-05-15T03:22:01.094Z,2331.7
2018-05-15T03:23:01.097Z,2500.7
2018-05-15T03:24:01.065Z,2677.5
2018-05-15T03:25:01.284Z,2861.9
2018-05-15T03:26:01.099Z,3052.9
2018-05-15T03:27:01.100Z,3250.4
2018-05-15T03:28:01.072Z,3453.9
2018-05-15T03:29:01.097Z,3663.3
2018-05-15T03:30:01.282Z,3880.0
2018-05-15T03:31:01.100Z,4103.9
2018-05-15T03:32:01.072Z,4336.2
2018-05-15T03:33:01.106Z,4578.5
2018-05-15T03:34:01.102Z,4831.1
2018-05-15T03:35:01.242Z,5092.3
2018-05-15T03:36:01.113Z,5361.1
2018-05-15T03:37:01.072Z,5637.8
2018-05-15T03:38:01.098Z,5921.9
2018-05-15T03:39:01.106Z,6212.9
2018-05-15T03:40:01.288Z,6510.1
2018-05-15T03:41:01.072Z,6815.7
2018-05-15T03:42:01.101Z,7131.0
2018-05-15T03:43:01.071Z,7454.7
2018-05-15T03:45:01.346Z,7810.1
2018-05-15T03:46:01.088Z,8171.8
2018-05-15T03:47:01.058Z,8539.2
2018-05-15T03:48:01.086Z,8910.9
2018-05-15T03:49:01.088Z,9284.9
2018-05-15T03:50:01.268Z,9660.7
2018-05-15T03:51:01.066Z,10038.9
2018-05-15T03:52:01.086Z,10420.6
2018-05-15T03:53:01.090Z,10803.9
2018-05-15T03:54:01.099Z,11189.3
2018-05-15T03:55:01.335Z,11577.5
2018-05-15T03:56:01.091Z,11968.4
2018-05-15T03:57:01.104Z,12359.7
2018-05-15T03:58:01.093Z,12750.4
2018-05-15T03:59:01.093Z,13140.8
2018-05-15T04:00:01.261Z,13507.6
2018-05-15T04:01:01.091Z,13874.3
2018-05-15T04:02:01.057Z,14243.1
2018-05-15T04:03:01.091Z,14613.9
2018-05-15T04:04:01.100Z,14985.2
2018-05-15T04:05:01.257Z,15355.9
2018-05-15T04:06:01.129Z,15725.9
2018-05-15T04:07:01.095Z,16093.8
2018-05-15T04:08:01.090Z,16459.0
2018-05-15T04:09:01.090Z,16822.1
2018-05-15T04:10:01.263Z,17183.7
2018-05-15T04:11:01.187Z,17545.8
2018-05-15T04:12:01.095Z,17909.3
2018-05-15T04:13:01.069Z,18273.9
2018-05-15T04:14:01.102Z,18638.8
2018-05-15T04:15:01.254Z,19002.8
2018-05-15T04:16:01.131Z,19366.4
2018-05-15T04:17:01.096Z,19728.3
2018-05-15T04:18:01.099Z,20089.8
2018-05-15T04:19:01.099Z,20450.3
2018-05-15T04:20:01.246Z,20811.4
2018-05-15T04:21:01.129Z,21174.4
2018-05-15T04:22:01.098Z,21539.6
2018-05-15T04:23:01.068Z,21907.4
2018-05-15T04:24:01.103Z,22277.6
2018-05-15T04:25:01.315Z,22648.5
2018-05-15T04:26:01.098Z,23016.1
2018-05-15T04:27:01.132Z,23380.2
2018-05-15T04:28:01.185Z,23742.5
2018-05-15T04:29:01.098Z,24104.7
2018-05-15T04:30:01.244Z,24467.1
2018-05-15T04:31:01.067Z,24829.7
2018-05-15T04:32:01.131Z,25192.3
2018-05-15T04:33:01.096Z,25554.1
2018-05-15T04:34:01.098Z,25916.9
2018-05-15T04:35:01.311Z,26277.7
2018-05-15T04:36:01.100Z,26635.1
2018-05-15T04:37:01.103Z,26989.1
2018-05-15T04:38:01.135Z,27341.4
2018-05-15T04:39:01.101Z,27690.6
2018-05-15T04:40:01.250Z,28037.1
2018-05-15T04:41:01.107Z,28381.9
2018-05-15T04:42:01.069Z,28726.3
2018-05-15T04:43:01.112Z,29069.5
2018-05-15T04:44:01.280Z,29411.3
2018-05-15T04:45:01.241Z,29748.1
2018-05-15T04:46:01.099Z,30080.3
2018-05-15T04:47:01.102Z,30411.9
2018-05-15T04:48:01.113Z,30739.5
2018-05-15T04:49:01.135Z,31072.8
2018-05-15T04:50:01.312Z,31641.3
2018-05-15T04:51:01.074Z,32631.6
2018-05-15T04:52:01.074Z,33903.5
2018-05-15T04:53:01.071Z,35235.2
2018-05-15T04:54:01.142Z,36439.5
2018-05-15T04:55:01.251Z,37600.7
2018-05-15T04:57:01.062Z,38788.7
2018-05-15T04:58:01.095Z,40081.4
2018-05-15T04:59:01.088Z,41583.3
2018-05-15T05:00:01.064Z,43120.8
2018-05-15T05:01:01.239Z,44669.7
2018-05-15T05:02:01.153Z,46230.7
2018-05-15T05:03:01.059Z,47793.7
2018-05-15T05:04:01.063Z,49351.3
2018-05-15T05:05:01.065Z,50890.7
2018-05-15T05:06:01.309Z,52180.7
2018-05-15T05:07:01.099Z,53037.0
2018-05-15T05:08:01.122Z,53600.6
2018-05-15T05:09:01.069Z,54097.9
2018-05-15T05:10:01.102Z,54717.8
2018-05-15T05:11:01.269Z,55365.3
2018-05-15T05:12:01.098Z,55950.0
2018-05-15T05:13:01.123Z,56369.3
2018-05-15T05:14:01.102Z,56479.9
2018-05-15T05:15:01.097Z,56466.3
2018-05-15T05:16:01.246Z,56383.5
2018-05-15T05:17:01.105Z,56261.3
2018-05-15T05:18:01.133Z,56135.4
2018-05-15T05:19:01.065Z,56039.4
2018-05-15T05:20:01.099Z,55971.4
2018-05-15T05:21:01.386Z,55934.7
2018-05-15T05:22:01.104Z,55941.6
2018-05-15T05:23:01.129Z,56008.1
2018-05-15T05:24:01.105Z,56142.9
2018-05-15T05:25:01.106Z,56362.8
2018-05-15T05:26:01.244Z,56662.3
2018-05-15T05:27:01.109Z,57018.3
2018-05-15T05:28:01.132Z,57445.3
2018-05-15T05:29:01.102Z,57977.5
2018-05-15T05:30:01.069Z,58604.1
2018-05-15T05:31:01.253Z,59299.3
2018-05-15T05:32:01.103Z,60025.1
2018-05-15T05:33:01.134Z,60764.9
2018-05-15T05:34:01.072Z,61473.4
2018-05-15T05:35:01.104Z,62141.3
2018-05-15T05:36:01.244Z,62769.2
2018-05-15T05:37:01.104Z,63343.1
2018-05-15T05:38:01.143Z,63846.5
2018-05-15T05:39:01.117Z,64265.7
2018-05-15T05:40:01.145Z,64582.9
2018-05-15T05:41:01.250Z,64814.4
2018-05-15T05:42:01.117Z,65005.4
2018-05-15T05:43:01.153Z,65164.3
2018-05-15T05:44:01.111Z,65295.0
2018-05-15T05:45:01.111Z,65397.3
2018-05-15T05:46:01.254Z,65470.2
2018-05-15T05:48:01.069Z,65520.7
2018-05-15T05:49:01.118Z,65535.0
2018-05-15T06:00:01.160Z,65535.0
2018-05-15T06:15:01.104Z,65535.0
2018-05-15T06:30:01.173Z,65535.0
2018-05-15T06:45:01.082Z,65535.0
2018-05-15T07:00:01.167Z,65535.0
2018-05-15T07:15:01.079Z,65535.0
2018-05-15T07:30:01.173Z,65535.0
2018-05-15T07:45:01.108Z,65535.0
2018-05-15T08:00:01.175Z,65535.0
2018-05-15T08:15:01.097Z,65535.0
2018-05-15T08:30:01.230Z,65535.0
2018-05-15T08:45:01.067Z,65535.0
2018-05-15T09:00:01.228Z,65535.0
2018-05-15T09:15:01.057Z,65535.0
2018-05-15T09:30:01.166Z,65535.0
2018-05-15T09:45:01.097Z,65535.0
2018-05-15T10:00:01.379Z,65535.0
2018-05-15T10:15:01.067Z,65535.0
2018-05-15T10:30:01.317Z,65535.0
2018-05-15T10:45:01.109Z,65535.0
2018-05-15T11:00:01.154Z,65535.0
2018-05-15T11:15:01.341Z,65535.0
2018-05-15T11:30:01.225Z,65535.0
2018-05-15T11:45:01.104Z,65535.0
2018-05-15T12:00:01.353Z,65535.0
2018-05-15T12:15:01.163Z,65535.0
2018-05-15T12:30:01.155Z,65535.0
2018-05-15T12:45:01.108Z,65535.0
2018-05-15T13:00:01.172Z,65535.0
2018-05-15T13:15:01.098Z,65535.0
2018-05-15T13:30:01.099Z,65535.0
2018-05-15T13:45:01.091Z,65535.0
2018-05-15T14:00:01.360Z,65535.0
2018-05-15T14:15:01.279Z,65535.0
2018-05-15T14:30:01.306Z,65535.0
2018-05-15T14:45:01.066Z,65535.0
2018-05-15T15:00:01.085Z,65535.0
2018-05-15T15:15:01.277Z,65535.0
2018-05-15T15:30:01.366Z,65535.0
2018-05-15T15:45:01.242Z,65535.0
2018-05-15T16:00:01.101Z,65535.0
2018-05-15T16:15:01.092Z,65503.3
2018-05-15T16:16:01.090Z,65482.5
2018-05-15T16:17:01.085Z,65382.6
2018-05-15T16:18:01.054Z,65281.9
2018-05-15T16:19:01.254Z,65145.3
2018-05-15T16:20:01.054Z,65040.3
2018-05-15T16:21:01.094Z,64854.3
2018-05-15T16:22:01.094Z,64806.9
2018-05-15T16:26:01.055Z,64772.3
2018-05-15T16:27:01.087Z,64707.7
2018-05-15T16:28:01.089Z,64492.7
2018-05-15T16:29:01.234Z,64199.3
2018-05-15T16:30:01.089Z,63925.3
2018-05-15T16:31:01.088Z,63640.1
2018-05-15T16:32:01.059Z,63462.4
2018-05-15T16:33:01.087Z,63345.9
2018-05-15T16:34:01.256Z,63352.3
2018-05-15T16:35:01.087Z,63443.3
2018-05-15T16:36:01.063Z,63629.3
2018-05-15T16:37:01.086Z,63676.7
2018-05-15T16:41:01.057Z,63711.3
2018-05-15T16:42:01.087Z,63775.9
2018-05-15T16:43:01.057Z,63990.9
2018-05-15T16:44:01.238Z,64284.3
2018-05-15T16:45:01.097Z,64590.0
2018-05-15T16:46:01.111Z,64895.9
2018-05-15T16:47:01.084Z,65173.6
2018-05-15T16:48:01.097Z,65390.9
2018-05-15T16:49:01.291Z,65521.0
2018-05-15T16:50:01.103Z,65535.0
2018-05-15T17:00:01.286Z,65535.0
2018-05-15T17:05:01.228Z,65426.8
2018-05-15T17:06:01.088Z,65157.8
2018-05-15T17:07:01.092Z,64725.7
2018-05-15T17:08:01.220Z,64157.6
2018-05-15T17:09:01.092Z,63473.6
2018-05-15T17:10:01.304Z,62749.0
2018-05-15T17:11:01.065Z,61966.4
2018-05-15T17:12:01.073Z,61137.7
2018-05-15T17:13:01.131Z,60258.5
2018-05-15T17:14:01.092Z,59354.4
2018-05-15T17:15:01.238Z,58479.5
2018-05-15T17:16:01.071Z,57697.8
2018-05-15T17:17:01.063Z,57077.7
2018-05-15T17:18:01.136Z,56622.5
2018-05-15T17:19:01.068Z,56172.4
2018-05-15T17:20:01.246Z,55774.7
2018-05-15T17:21:01.097Z,55468.6
2018-05-15T17:22:01.067Z,55274.7
2018-05-15T17:23:01.131Z,55201.9
2018-05-15T17:24:01.099Z,55267.1
2018-05-15T17:25:01.244Z,55417.9
2018-05-15T17:26:01.105Z,55645.0
2018-05-15T17:27:01.098Z,55877.1
2018-05-15T17:28:01.138Z,56019.8
2018-05-15T17:29:01.070Z,56007.3
2018-05-15T17:31:01.228Z,55833.1
2018-05-15T17:32:01.057Z,55541.8
2018-05-15T17:33:01.084Z,55087.3
2018-05-15T17:34:01.110Z,54470.1
2018-05-15T17:35:01.085Z,53766.0
2018-05-15T17:36:01.295Z,52952.9
2018-05-15T17:37:01.052Z,51974.9
2018-05-15T17:38:01.057Z,50755.5
2018-05-15T17:39:01.119Z,49292.5
2018-05-15T17:40:01.086Z,47662.1
2018-05-15T17:41:01.225Z,45947.9
2018-05-15T17:42:01.083Z,44244.3
2018-05-15T17:43:01.091Z,42637.7
2018-05-15T17:44:01.121Z,41216.8
2018-05-15T17:45:01.087Z,39968.5
2018-05-15T17:46:01.226Z,38744.5
2018-05-15T17:47:01.053Z,37355.3
2018-05-15T17:48:01.143Z,35792.5
2018-05-15T17:49:01.124Z,34106.9
2018-05-15T17:50:01.092Z,32441.3
2018-05-15T17:51:01.290Z,30906.8
2018-05-15T17:52:01.059Z,29568.5
2018-05-15T17:53:01.098Z,28500.4
2018-05-15T17:54:01.126Z,27680.3
2018-05-15T17:55:01.093Z,26978.5
2018-05-15T17:56:01.240Z,26275.3
2018-05-15T17:57:01.055Z,25523.3
2018-05-15T17:58:01.090Z,24745.9
2018-05-15T17:59:01.152Z,23959.7
2018-05-15T18:00:01.299Z,23175.4
2018-05-15T18:01:01.239Z,22462.3
2018-05-15T18:02:01.128Z,21904.4
2018-05-15T18:03:01.097Z,21503.2
2018-05-15T18:04:01.092Z,21215.7
2018-05-15T18:05:01.096Z,20996.5
2018-05-15T18:06:01.242Z,20836.5
2018-05-15T18:07:01.124Z,20751.5
2018-05-15T18:08:01.062Z,20743.4
2018-05-15T18:09:01.099Z,20806.2
2018-05-15T18:10:01.105Z,20950.2
2018-05-15T18:11:01.266Z,21140.3
2018-05-15T18:12:01.132Z,21333.8
2018-05-15T18:13:01.099Z,21447.3
2018-05-15T18:14:01.094Z,21494.9
2018-05-15T18:15:01.094Z,21569.5
2018-05-15T18:16:01.242Z,21709.9
2018-05-15T18:17:01.124Z,21854.5
2018-05-15T18:18:01.068Z,21933.0
2018-05-15T18:19:01.066Z,21944.0
2018-05-15T18:20:01.131Z,21881.5
2018-05-15T18:21:01.351Z,21712.4
2018-05-15T18:22:01.105Z,21474.7
2018-05-15T18:23:01.077Z,21190.3
2018-05-15T18:25:01.056Z,20809.6
2018-05-15T18:26:01.231Z,20332.1
2018-05-15T18:27:01.085Z,19814.9
2018-05-15T18:28:01.084Z,19287.9
2018-05-15T18:29:01.055Z,18797.6
2018-05-15T18:30:01.087Z,18330.4
2018-05-15T18:31:01.458Z,17846.2
2018-05-15T18:32:01.085Z,17343.5
2018-05-15T18:33:01.159Z,16887.1
2018-05-15T18:34:01.086Z,16545.2
2018-05-15T18:35:01.129Z,16314.1
2018-05-15T18:36:01.238Z,16171.8
2018-05-15T18:37:01.059Z,16098.0
2018-05-15T18:38:01.090Z,16020.3
2018-05-15T18:39:01.120Z,15884.5
2018-05-15T18:40:01.091Z,15727.9
2018-05-15T18:41:01.242Z,15570.2
2018-05-15T18:42:01.097Z,15412.0
2018-05-15T18:43:01.096Z,15247.3
2018-05-15T18:44:01.082Z,15076.8
2018-05-15T18:45:01.060Z,14892.0
2018-05-15T18:46:01.236Z,14674.0
2018-05-15T18:47:01.096Z,14408.5
2018-05-15T18:48:01.091Z,14087.6
2018-05-15T18:49:01.100Z,13695.9
2018-05-15T18:50:06.096Z,13228.9
2018-05-15T18:51:01.324Z,12718.1
2018-05-15T18:52:01.095Z,12214.7
2018-05-15T18:53:01.097Z,11753.1
2018-05-15T18:54:01.101Z,11346.2
2018-05-15T18:55:01.128Z,10992.8
2018-05-15T18:56:01.243Z,10662.3
2018-05-15T18:57:01.100Z,10331.7
2018-05-15T18:58:01.196Z,10004.7
2018-05-15T18:59:01.101Z,9670.5
2018-05-15T19:00:01.131Z,9335.0
2018-05-15T19:01:01.237Z,9011.1
2018-05-15T19:02:01.072Z,8703.5
2018-05-15T19:03:01.068Z,8411.9
2018-05-15T19:04:01.136Z,8140.9
2018-05-15T19:05:01.128Z,7891.4
2018-05-15T19:06:01.249Z,7646.3
2018-05-15T19:07:01.104Z,7386.3
2018-05-15T19:08:01.103Z,7098.7
2018-05-15T19:09:01.099Z,6786.3
2018-05-15T19:10:01.126Z,6457.3
2018-05-15T19:11:01.521Z,6130.5
2018-05-15T19:12:01.067Z,5821.2
2018-05-15T19:13:01.102Z,5525.1
2018-05-15T19:14:01.078Z,5240.7
2018-05-15T19:15:01.105Z,4963.3
2018-05-15T19:16:01.542Z,4689.5
2018-05-15T19:17:01.127Z,4424.1
2018-05-15T19:18:01.102Z,4170.5
2018-05-15T19:19:01.101Z,3925.7
2018-05-15T19:20:01.098Z,3686.8
2018-05-15T19:21:01.243Z,3454.7
2018-05-15T19:22:01.126Z,3231.2
2018-05-15T19:23:01.069Z,3017.7
2018-05-15T19:24:01.100Z,2814.0
2018-05-15T19:25:01.100Z,2620.9
2018-05-15T19:26:01.245Z,2437.9
2018-05-15T19:27:01.235Z,2264.0
2018-05-15T19:28:01.099Z,2098.7
2018-05-15T19:29:01.106Z,1941.4
2018-05-15T19:30:01.099Z,1792.7
2018-05-15T19:31:01.504Z,1652.5
2018-05-15T19:32:01.145Z,1519.8
2018-05-15T19:33:01.109Z,1393.5
2018-05-15T19:35:01.085Z,1269.8
2018-05-15T19:36:01.229Z,1153.5
2018-05-15T19:37:01.056Z,1044.7
2018-05-15T19:38:01.116Z,944.3
2018-05-15T19:39:01.089Z,852.5
2018-05-15T19:40:01.058Z,769.1
2018-05-15T19:41:01.229Z,693.1
2018-05-15T19:42:01.054Z,623.7
2018-05-15T19:43:01.124Z,560.4
2018-05-15T19:44:01.098Z,502.5
2018-05-15T19:45:01.163Z,449.3
2018-05-15T19:46:01.236Z,400.6
2018-05-15T19:47:01.100Z,356.1
2018-05-15T19:48:01.114Z,315.4
2018-05-15T19:49:01.090Z,278.5
2018-05-15T19:50:01.067Z,249.5
2018-05-15T19:51:01.239Z,223.8
2018-05-15T19:52:01.090Z,200.9
2018-05-15T19:53:01.222Z,180.4
2018-05-15T19:54:01.061Z,161.8
2018-05-15T19:55:01.098Z,144.8
2018-05-15T19:56:01.234Z,129.2
2018-05-15T19:57:01.094Z,115.0
2018-05-15T19:58:01.121Z,102.3
2018-05-15T19:59:01.066Z,91.1
2018-05-15T20:00:01.069Z,81.2
2018-05-15T20:01:01.247Z,72.3
2018-05-15T20:02:01.190Z,64.3
2018-05-15T20:03:01.118Z,57.1
2018-05-15T20:04:01.064Z,50.7
2018-05-15T20:05:01.094Z,45.1
2018-05-15T20:06:01.239Z,40.1
2018-05-15T20:07:01.099Z,35.6
2018-05-15T20:08:01.127Z,31.7
2018-05-15T20:09:01.132Z,28.1
2018-05-15T20:10:01.096Z,25.0
2018-05-15T20:11:01.268Z,22.3
2018-05-15T20:12:01.066Z,19.9
2018-05-15T20:13:01.124Z,17.7
2018-05-15T20:14:01.131Z,15.8
2018-05-15T20:15:01.097Z,14.1
2018-05-15T20:16:01.236Z,12.5
2018-05-15T20:17:01.100Z,11.1
2018-05-15T20:18:01.131Z,9.9
2018-05-15T20:19:01.095Z,8.8
2018-05-15T20:20:01.074Z,7.8
2018-05-15T20:21:01.243Z,6.9
2018-05-15T20:22:01.070Z,6.1
2018-05-15T20:23:01.129Z,5.5
2018-05-15T20:24:01.068Z,4.9
2018-05-15T20:25:01.095Z,4.3
2018-05-15T20:26:01.301Z,3.8
2018-05-15T20:27:01.102Z,3.3
2018-05-15T20:28:01.135Z,2.9
2018-05-15T20:29:01.147Z,2.6
2018-05-15T20:30:01.067Z,2.3
2018-05-15T20:31:01.500Z,2.1
2018-05-15T20:32:01.102Z,1.9
2018-05-15T20:33:01.137Z,1.7
2018-05-15T20:34:01.067Z,1.5
2018-05-15T20:35:01.216Z,1.4
2018-05-15T20:36:01.237Z,1.3
2018-05-15T20:37:01.069Z,1.2
2018-05-15T20:38:01.132Z,1.1
2018-05-15T20:39:01.100Z,0.9
2018-05-15T20:40:01.067Z,0.8
2018-05-15T20:41:01.247Z,0.7
2018-05-15T20:43:01.136Z,0.6
2018-05-15T20:44:01.067Z,0.5
2018-05-15T20:45:01.066Z,0.5
2018-05-15T20:46:01.236Z,0.4
2018-05-15T20:47:01.103Z,0.3
2018-05-15T20:49:01.254Z,0.2
2018-05-15T20:50:01.066Z,0.1
